Time;durP1;ratioP1;P1;durP2;ratioP2;P2;SDS_P1;SDS_P2;PMS_P1;PMS_P2;Temp;Humidity;BMP_temperature;BMP_pressure;BME280_temperature;BME280_humidity;BME280_pressure;Samples;Min_cycle;Max_cycle;Signal;HPM_P1;HPM_P2
2022/02/01 00:02:13;;;;;;;15.02;10.32;;;5.80;96.70;;;;;;4976557;28;20050;-76
2022/02/01 00:04:53;;;;;;;13.50;10.50;;;5.80;96.70;;;;;;4977298;28;20050;-77
2022/02/01 00:07:37;;;;;;;16.48;11.25;;;5.80;96.70;;;;;;4976104;28;20296;-76
2022/02/01 00:12:50;;;;;;;14.85;12.20;;;5.90;96.70;;;;;;4973848;28;20049;-77
2022/02/01 00:15:52;;;;;;;19.08;12.50;;;5.90;96.70;;;;;;4973488;28;20150;-77
2022/02/01 00:35:02;;;;;;;17.40;11.93;;;5.80;96.70;;;;;;4985152;28;20060;-77
2022/02/01 00:37:32;;;;;;;16.30;11.32;;;5.60;96.70;;;;;;4999839;28;20065;-76
2022/02/01 00:40:08;;;;;;;13.43;10.30;;;5.60;96.70;;;;;;4983194;28;20493;-77
2022/02/01 00:42:37;;;;;;;13.95;11.00;;;5.70;96.70;;;;;;4993838;28;20046;-77
2022/02/01 00:45:05;;;;;;;14.80;10.55;;;5.80;96.70;;;;;;4969970;28;20108;-77
2022/02/01 00:47:35;;;;;;;14.52;10.73;;;5.90;96.70;;;;;;5000679;28;20052;-77
2022/02/01 00:50:04;;;;;;;15.52;10.65;;;5.90;96.70;;;;;;4985827;28;20053;-77
2022/02/01 00:52:31;;;;;;;13.68;9.63;;;5.80;96.70;;;;;;4984706;28;20527;-76
2022/02/01 00:55:00;;;;;;;13.48;9.18;;;5.90;96.70;;;;;;4990217;28;20050;-76
2022/02/01 00:57:28;;;;;;;14.60;9.05;;;5.90;96.70;;;;;;5005912;28;20085;-77
2022/02/01 00:59:56;;;;;;;12.20;8.63;;;5.80;96.70;;;;;;4987470;28;20064;-76
2022/02/01 01:02:24;;;;;;;12.05;8.18;;;5.70;96.70;;;;;;4982609;28;20486;-77
2022/02/01 01:04:54;;;;;;;10.85;8.00;;;5.80;96.70;;;;;;5001589;28;20451;-77
2022/02/01 01:07:22;;;;;;;15.30;8.75;;;5.60;96.70;;;;;;4987499;28;20049;-80
2022/02/01 01:09:55;;;;;;;11.82;8.95;;;5.10;96.70;;;;;;5001274;28;20093;-80
2022/02/01 01:12:26;;;;;;;11.75;8.57;;;5.00;96.70;;;;;;4985635;28;20579;-80
2022/02/01 01:45:55;;;;;;;10.95;8.25;;;4.80;96.70;;;;;;4988862;28;20412;-80
2022/02/01 01:54:01;;;;;;;13.93;9.32;;;5.00;96.70;;;;;;5011251;28;20056;-80
2022/02/01 01:56:30;;;;;;;13.20;9.20;;;5.00;96.70;;;;;;5010821;28;20045;-80
2022/02/01 01:59:01;;;;;;;12.25;8.55;;;5.20;96.70;;;;;;4991149;28;20561;-80
2022/02/01 02:01:29;;;;;;;12.23;9.18;;;5.20;96.70;;;;;;5003406;28;20049;-80
2022/02/01 02:03:58;;;;;;;13.52;9.20;;;5.20;96.70;;;;;;4990971;28;20046;-80
2022/02/01 02:06:26;;;;;;;12.35;8.43;;;5.10;96.70;;;;;;5007023;28;20033;-80
2022/02/01 02:08:55;;;;;;;11.40;8.45;;;5.00;96.70;;;;;;5004961;28;20125;-80
2022/02/01 02:12:18;;;;;;;13.02;8.82;;;5.00;96.70;;;;;;5007700;28;20133;-80
2022/02/01 02:16:47;;;;;;;12.73;7.85;;;5.00;96.70;;;;;;5005673;28;20133;-80
2022/02/01 02:19:16;;;;;;;12.38;7.93;;;5.10;96.70;;;;;;4989640;28;20591;-80
2022/02/01 02:21:51;;;;;;;11.80;8.15;;;5.00;96.70;;;;;;4991771;28;20617;-80
2022/02/01 02:24:22;;;;;;;11.52;7.80;;;4.90;96.70;;;;;;4986719;28;20053;-80
2022/02/01 02:26:51;;;;;;;9.00;6.80;;;5.00;96.70;;;;;;4988018;28;20132;-80
2022/02/01 02:29:19;;;;;;;10.40;7.80;;;5.00;96.70;;;;;;4988083;28;20092;-80
2022/02/01 02:31:47;;;;;;;11.20;8.50;;;4.80;96.70;;;;;;5007136;28;20042;-80
2022/02/01 02:34:17;;;;;;;12.30;8.68;;;4.60;96.70;;;;;;5006426;28;20157;-80
2022/02/01 02:37:02;;;;;;;11.80;8.27;;;4.40;96.70;;;;;;4991643;28;20046;-80
2022/02/01 02:39:47;;;;;;;13.52;8.27;;;4.50;96.70;;;;;;5003040;28;20034;-80
2022/02/01 02:42:30;;;;;;;15.65;8.88;;;4.60;96.70;;;;;;5000477;28;20045;-80
2022/02/01 02:45:05;;;;;;;10.77;7.80;;;4.70;96.70;;;;;;5003405;28;20050;-80
2022/02/01 02:47:33;;;;;;;16.95;9.93;;;4.80;96.70;;;;;;5002064;28;20072;-80
2022/02/01 02:50:02;;;;;;;12.55;9.07;;;4.50;96.70;;;;;;4989919;28;20030;-80
2022/02/01 02:52:32;;;;;;;13.23;9.82;;;4.30;96.70;;;;;;4988803;28;20073;-80
2022/02/01 02:55:00;;;;;;;13.27;9.63;;;4.50;96.70;;;;;;4989957;28;20057;-80
2022/02/01 02:57:28;;;;;;;12.90;8.73;;;4.40;96.70;;;;;;4988889;28;20515;-80
2022/02/01 02:59:56;;;;;;;11.93;8.13;;;4.60;96.70;;;;;;5007352;28;20080;-79
2022/02/01 03:02:24;;;;;;;13.65;8.75;;;4.70;96.70;;;;;;4990014;28;20158;-80
2022/02/01 03:04:53;;;;;;;14.63;9.07;;;4.60;96.70;;;;;;4986354;28;20038;-80
2022/02/01 03:07:21;;;;;;;13.63;9.45;;;4.60;96.70;;;;;;4988973;28;20124;-78
2022/02/01 03:09:51;;;;;;;12.45;8.23;;;4.70;96.70;;;;;;5004590;28;20129;-77
2022/02/01 03:12:34;;;;;;;13.45;8.88;;;4.70;96.70;;;;;;4988417;28;20070;-77
2022/02/01 03:15:23;;;;;;;14.32;9.18;;;4.60;96.70;;;;;;4982551;28;20443;-77
2022/02/01 03:20:38;;;;;;;12.18;8.55;;;4.80;96.70;;;;;;5003058;28;20057;-77
2022/02/01 03:23:06;;;;;;;10.98;8.15;;;4.80;96.70;;;;;;4991176;28;20042;-78
2022/02/01 03:25:36;;;;;;;11.77;8.50;;;4.60;96.70;;;;;;5003965;28;20128;-77
2022/02/01 03:28:04;;;;;;;10.98;8.23;;;4.60;96.70;;;;;;4985930;28;20522;-77
2022/02/01 03:30:32;;;;;;;11.25;8.38;;;4.60;96.70;;;;;;5006901;28;20125;-77
2022/02/01 03:33:00;;;;;;;10.68;7.95;;;4.50;96.70;;;;;;4984822;28;20129;-78
2022/02/01 03:35:28;;;;;;;10.45;7.78;;;4.50;96.70;;;;;;4980777;28;20574;-78
2022/02/01 03:37:58;;;;;;;10.57;7.97;;;4.60;96.70;;;;;;5000433;28;20516;-77
2022/02/01 03:40:26;;;;;;;11.98;7.68;;;4.60;96.70;;;;;;5003633;28;20061;-77
2022/02/01 03:42:56;;;;;;;9.40;6.75;;;4.60;96.70;;;;;;5005102;28;20041;-78
2022/02/01 03:45:24;;;;;;;12.07;8.00;;;4.60;96.70;;;;;;4973274;28;20235;-76
2022/02/01 03:47:53;;;;;;;10.88;6.88;;;4.50;96.70;;;;;;4987044;28;20102;-78
2022/02/01 03:50:22;;;;;;;11.32;7.05;;;4.50;96.70;;;;;;5006936;28;20140;-77
2022/02/01 03:52:52;;;;;;;12.40;7.38;;;4.40;96.70;;;;;;4988152;28;20132;-78
2022/02/01 03:55:21;;;;;;;10.15;7.68;;;4.40;96.70;;;;;;4983329;28;20132;-78
2022/02/01 03:57:49;;;;;;;12.57;7.35;;;4.40;96.70;;;;;;4984499;28;20037;-77
2022/02/01 04:00:18;;;;;;;10.73;7.30;;;4.20;96.70;;;;;;4987877;28;20049;-77
2022/02/01 04:02:46;;;;;;;10.52;7.03;;;4.30;96.70;;;;;;4990529;28;20092;-78
2022/02/01 04:05:15;;;;;;;10.85;7.25;;;4.10;96.70;;;;;;5002348;28;20045;-77
2022/02/01 04:07:46;;;;;;;10.35;7.60;;;4.00;96.70;;;;;;5003791;28;20567;-78
2022/02/01 04:10:17;;;;;;;10.40;7.05;;;3.90;96.70;;;;;;5002498;28;20044;-77
2022/02/01 04:12:45;;;;;;;10.93;7.57;;;4.10;96.70;;;;;;4984116;28;20061;-78
2022/02/01 04:15:13;;;;;;;9.65;6.88;;;4.10;96.70;;;;;;5001943;28;20116;-78
2022/02/01 04:17:43;;;;;;;11.48;7.93;;;4.00;96.70;;;;;;5001198;28;20140;-77
2022/02/01 04:20:12;;;;;;;11.38;7.60;;;4.00;96.70;;;;;;5004693;28;20042;-77
2022/02/01 04:22:40;;;;;;;9.77;6.75;;;4.00;96.70;;;;;;4986957;28;20519;-77
2022/02/01 04:25:08;;;;;;;10.73;8.07;;;3.90;96.70;;;;;;5007072;28;20041;-77
2022/02/01 04:27:38;;;;;;;10.32;7.43;;;3.80;96.70;;;;;;4988677;28;20479;-77
2022/02/01 04:30:09;;;;;;;15.63;7.97;;;3.90;96.70;;;;;;5000226;28;20076;-77
2022/02/01 04:32:39;;;;;;;12.13;7.50;;;3.80;96.70;;;;;;5004463;28;20050;-77
2022/02/01 04:35:12;;;;;;;12.88;8.35;;;3.70;96.70;;;;;;4998670;28;20156;-78
2022/02/01 04:37:40;;;;;;;10.85;7.80;;;3.90;96.70;;;;;;5007504;28;20054;-77
2022/02/01 04:40:10;;;;;;;12.15;7.72;;;3.80;96.70;;;;;;5002176;28;20124;-78
2022/02/01 04:42:40;;;;;;;9.75;7.40;;;3.80;96.70;;;;;;4984202;28;20153;-77
2022/02/01 04:45:12;;;;;;;16.88;8.10;;;3.60;96.70;;;;;;4987337;28;20423;-77
2022/02/01 04:47:40;;;;;;;12.02;8.13;;;3.70;96.70;;;;;;5006338;28;20558;-77
2022/02/01 04:50:14;;;;;;;13.02;7.88;;;3.90;96.70;;;;;;4997869;28;20043;-77
2022/02/01 04:52:44;;;;;;;11.85;8.00;;;3.90;96.70;;;;;;5005796;28;20049;-77
2022/02/01 04:55:13;;;;;;;10.52;7.13;;;3.90;96.70;;;;;;4988181;28;20045;-78
2022/02/01 04:57:54;;;;;;;11.48;7.25;;;3.80;96.70;;;;;;4985129;28;20046;-78
2022/02/01 05:00:25;;;;;;;10.32;6.43;;;3.60;96.70;;;;;;5000970;28;20270;-78
2022/02/01 05:02:54;;;;;;;10.57;7.22;;;3.90;96.70;;;;;;5003409;28;20433;-77
2022/02/01 05:05:30;;;;;;;13.15;6.82;;;4.00;96.70;;;;;;5000782;28;20939;-78
2022/02/01 05:08:00;;;;;;;11.13;7.50;;;4.00;96.70;;;;;;4989996;28;20052;-77
2022/02/01 05:10:35;;;;;;;14.38;7.93;;;4.00;96.70;;;;;;5010879;28;20295;-77
2022/02/01 05:15:40;;;;;;;11.05;7.78;;;4.10;96.70;;;;;;5003256;28;20471;-77
2022/02/01 05:18:15;;;;;;;13.13;7.82;;;3.90;96.70;;;;;;4981667;28;20087;-78
2022/02/01 05:20:54;;;;;;;11.32;7.38;;;3.80;96.70;;;;;;5007276;28;20046;-77
2022/02/01 05:23:24;;;;;;;10.18;7.63;;;4.10;96.70;;;;;;5001366;28;20057;-78
2022/02/01 05:25:52;;;;;;;12.80;7.85;;;4.00;96.70;;;;;;4986609;28;20046;-77
2022/02/01 05:28:21;;;;;;;12.85;8.07;;;3.80;96.70;;;;;;5003205;28;20056;-77
2022/02/01 05:30:49;;;;;;;10.52;7.75;;;3.90;96.70;;;;;;5009395;28;20038;-75
2022/02/01 05:33:17;;;;;;;12.07;7.25;;;3.80;96.70;;;;;;5007913;28;20073;-77
2022/02/01 05:35:47;;;;;;;12.70;7.93;;;3.40;96.70;;;;;;4983006;28;20058;-77
2022/02/01 05:38:15;;;;;;;12.98;7.85;;;3.30;96.70;;;;;;4981658;28;20132;-77
2022/02/01 05:40:43;;;;;;;12.00;7.22;;;3.20;96.70;;;;;;4984103;28;20473;-77
2022/02/01 05:43:17;;;;;;;11.55;7.22;;;3.10;96.70;;;;;;4980497;28;20046;-77
2022/02/01 05:45:45;;;;;;;10.45;7.28;;;3.10;96.70;;;;;;5001231;28;20049;-77
2022/02/01 05:48:15;;;;;;;11.95;8.02;;;3.30;96.70;;;;;;4983269;28;20048;-77
2022/02/01 05:50:43;;;;;;;9.23;6.78;;;3.50;96.70;;;;;;4984393;28;20477;-77
2022/02/01 05:53:13;;;;;;;12.13;7.18;;;3.40;96.70;;;;;;4985287;28;20104;-77
2022/02/01 05:55:42;;;;;;;9.38;6.80;;;3.40;96.70;;;;;;5010103;28;20053;-77
2022/02/01 05:58:10;;;;;;;12.00;8.13;;;3.50;96.70;;;;;;4999994;28;20575;-77
2022/02/01 06:00:38;;;;;;;16.15;9.43;;;3.60;96.70;;;;;;4984734;28;20054;-77
2022/02/01 06:03:06;;;;;;;13.05;8.82;;;3.60;96.70;;;;;;4986970;28;20053;-77
2022/02/01 06:05:35;;;;;;;16.50;10.93;;;3.70;96.70;;;;;;4999594;28;20528;-77
2022/02/01 06:08:03;;;;;;;16.27;9.32;;;3.80;96.70;;;;;;4981773;28;20039;-77
2022/02/01 06:10:33;;;;;;;13.98;9.70;;;3.70;96.70;;;;;;4985669;28;20049;-77
2022/02/01 06:13:01;;;;;;;20.10;10.15;;;3.40;96.70;;;;;;4987735;28;20039;-77
2022/02/01 06:15:31;;;;;;;13.18;9.07;;;3.30;96.70;;;;;;4997067;28;21121;-77
2022/02/01 06:17:59;;;;;;;19.23;9.05;;;3.00;96.70;;;;;;4983160;28;20050;-77
2022/02/01 06:20:27;;;;;;;15.82;10.32;;;3.20;96.70;;;;;;4979192;28;20054;-77
2022/02/01 06:22:55;;;;;;;16.10;11.02;;;3.00;96.70;;;;;;4984914;28;20038;-77
2022/02/01 06:25:47;;;;;;;15.43;11.05;;;3.20;96.70;;;;;;4984522;28;20046;-77
2022/02/01 06:28:14;;;;;;;16.33;12.50;;;3.30;96.70;;;;;;4983804;28;20065;-77
2022/02/01 06:30:42;;;;;;;18.98;13.95;;;3.40;96.70;;;;;;4996266;28;20050;-77
2022/02/01 06:33:11;;;;;;;17.77;12.80;;;3.20;96.70;;;;;;4984499;28;20172;-77
2022/02/01 06:35:39;;;;;;;18.50;13.13;;;3.20;96.70;;;;;;5000405;28;20057;-77
2022/02/01 06:38:09;;;;;;;15.70;12.63;;;3.30;96.70;;;;;;5007688;28;20041;-77
2022/02/01 06:40:38;;;;;;;22.40;14.50;;;3.30;96.70;;;;;;5005235;28;20049;-77
2022/02/01 06:43:06;;;;;;;18.52;14.43;;;3.30;96.70;;;;;;4988914;28;20399;-77
2022/02/01 06:45:36;;;;;;;15.38;12.18;;;3.20;96.70;;;;;;5003487;28;20100;-77
2022/02/01 06:48:04;;;;;;;16.95;10.20;;;3.30;96.70;;;;;;5010847;28;20442;-77
2022/02/01 06:50:34;;;;;;;12.40;8.55;;;3.40;96.70;;;;;;5003101;28;20037;-77
2022/02/01 06:53:03;;;;;;;10.48;7.88;;;3.50;96.70;;;;;;5006096;28;20140;-77
2022/02/01 06:58:23;;;;;;;9.40;5.85;;;3.50;96.70;;;;;;4983144;28;20058;-77
2022/02/01 07:00:53;;;;;;;9.82;6.45;;;3.40;96.70;;;;;;4982142;28;20124;-77
2022/02/01 07:03:21;;;;;;;12.63;8.75;;;3.40;96.70;;;;;;5007385;28;20602;-77
2022/02/01 07:05:50;;;;;;;12.57;8.23;;;3.30;96.70;;;;;;5001901;28;20586;-76
2022/02/01 07:08:18;;;;;;;14.10;8.90;;;3.40;96.70;;;;;;4988046;28;20055;-77
2022/02/01 07:10:46;;;;;;;12.00;8.18;;;3.50;96.70;;;;;;4968337;28;20384;-77
2022/02/01 07:13:16;;;;;;;14.18;8.52;;;3.50;96.70;;;;;;4985139;28;20372;-77
2022/02/01 07:15:44;;;;;;;13.00;8.32;;;3.50;96.70;;;;;;4994051;28;20052;-77
2022/02/01 07:18:14;;;;;;;14.05;7.88;;;3.60;96.70;;;;;;5004012;28;20054;-77
2022/02/01 07:20:42;;;;;;;10.18;7.07;;;3.40;96.70;;;;;;4998699;28;20104;-77
2022/02/01 07:23:14;;;;;;;10.65;6.53;;;3.30;96.70;;;;;;5001284;28;20117;-77
2022/02/01 07:25:46;;;;;;;11.23;6.90;;;3.40;96.70;;;;;;5004226;28;20047;-77
2022/02/01 07:28:17;;;;;;;11.40;7.88;;;3.50;96.70;;;;;;5000707;28;20077;-77
2022/02/01 07:30:45;;;;;;;10.88;6.20;;;3.60;96.70;;;;;;5003254;28;20038;-77
2022/02/01 07:33:15;;;;;;;10.82;7.57;;;3.70;96.70;;;;;;4983760;28;20325;-77
2022/02/01 07:35:47;;;;;;;12.32;8.27;;;3.50;96.70;;;;;;5002652;28;20133;-77
2022/02/01 07:38:18;;;;;;;12.32;8.35;;;3.70;96.70;;;;;;5004707;28;20042;-77
2022/02/01 07:40:47;;;;;;;13.65;8.80;;;3.80;96.70;;;;;;4987390;28;20144;-77
2022/02/01 07:43:16;;;;;;;12.93;8.75;;;3.80;96.70;;;;;;4986341;28;20048;-77
2022/02/01 07:45:45;;;;;;;11.45;7.22;;;3.90;96.70;;;;;;4996645;28;20121;-79
2022/02/01 07:48:16;;;;;;;11.30;7.28;;;4.10;96.70;;;;;;4987812;28;20044;-79
2022/02/01 07:50:44;;;;;;;11.23;6.85;;;4.20;96.70;;;;;;4994801;28;20100;-79
2022/02/01 07:53:13;;;;;;;13.10;6.88;;;4.20;96.70;;;;;;4987712;28;20046;-79
2022/02/01 07:55:41;;;;;;;12.00;6.63;;;4.30;96.70;;;;;;4983279;28;20322;-79
2022/02/01 07:58:09;;;;;;;10.07;6.07;;;4.30;96.70;;;;;;4985654;28;20046;-80
2022/02/01 08:00:38;;;;;;;9.55;6.60;;;4.40;96.70;;;;;;5002825;28;20073;-79
2022/02/01 08:03:06;;;;;;;12.07;6.90;;;4.50;96.70;;;;;;5001942;28;20456;-83
2022/02/01 08:05:36;;;;;;;11.05;6.72;;;4.60;96.70;;;;;;5001344;28;20050;-80
2022/02/01 08:08:07;;;;;;;12.32;7.78;;;4.60;96.70;;;;;;5002077;28;20068;-81
2022/02/01 08:10:43;;;;;;;11.27;7.57;;;4.60;96.70;;;;;;4983610;28;20132;-80
2022/02/01 08:19:07;;;;;;;11.52;8.07;;;4.60;96.70;;;;;;5008064;28;20321;-80
2022/02/01 08:21:54;;;;;;;13.00;8.85;;;4.60;96.70;;;;;;4992963;28;20608;-79
2022/02/01 08:24:22;;;;;;;13.55;8.57;;;4.70;96.70;;;;;;5008744;28;20155;-79
2022/02/01 08:26:51;;;;;;;13.88;9.30;;;4.80;96.70;;;;;;4986583;28;20454;-78
2022/02/01 08:29:19;;;;;;;11.90;7.88;;;4.90;96.70;;;;;;4991557;28;20034;-78
2022/02/01 08:31:49;;;;;;;12.82;8.60;;;4.90;96.70;;;;;;5003731;28;20046;-79
2022/02/01 08:34:18;;;;;;;12.40;8.00;;;5.00;96.70;;;;;;5001756;28;20433;-81
2022/02/01 08:36:47;;;;;;;11.00;7.57;;;5.10;96.70;;;;;;4998264;28;20055;-79
2022/02/01 08:39:17;;;;;;;12.05;7.50;;;5.10;96.70;;;;;;4983960;28;20061;-78
2022/02/01 08:41:46;;;;;;;10.88;7.57;;;5.20;96.70;;;;;;4983601;28;20038;-76
2022/02/01 08:44:16;;;;;;;13.10;8.05;;;5.20;96.70;;;;;;4991829;28;20511;-78
2022/02/01 08:46:45;;;;;;;10.63;7.40;;;5.30;96.70;;;;;;4986249;28;20569;-77
2022/02/01 08:49:13;;;;;;;12.98;8.18;;;5.20;96.70;;;;;;4989657;28;20318;-77
2022/02/01 08:51:44;;;;;;;11.77;7.45;;;5.20;96.70;;;;;;4988932;28;20054;-77
2022/02/01 08:54:20;;;;;;;13.93;8.55;;;5.30;96.70;;;;;;4986032;28;20042;-77
2022/02/01 08:59:37;;;;;;;12.05;7.90;;;5.40;96.70;;;;;;4987872;28;20050;-80
2022/02/01 09:02:06;;;;;;;13.63;8.65;;;5.50;96.70;;;;;;4991024;28;20038;-80
2022/02/01 09:04:34;;;;;;;13.82;9.10;;;5.60;96.70;;;;;;4984670;28;20050;-81
2022/02/01 09:07:03;;;;;;;15.65;9.50;;;5.50;96.70;;;;;;4992506;28;20504;-80
2022/02/01 09:09:32;;;;;;;12.57;8.57;;;5.50;96.70;;;;;;4999257;28;20039;-81
2022/02/01 09:12:03;;;;;;;14.55;9.30;;;5.70;96.70;;;;;;5000661;28;20053;-82
2022/02/01 09:14:32;;;;;;;14.73;9.18;;;5.90;96.70;;;;;;4984889;28;20046;-81
2022/02/01 09:17:03;;;;;;;14.63;9.02;;;6.00;96.70;;;;;;4987309;28;20042;-81
2022/02/01 09:19:31;;;;;;;19.58;11.85;;;6.10;96.70;;;;;;4988202;28;20070;-81
2022/02/01 09:22:01;;;;;;;14.52;10.00;;;6.30;96.70;;;;;;4981251;28;20053;-80
2022/02/01 09:24:34;;;;;;;13.32;9.18;;;6.30;96.70;;;;;;4969348;28;20054;-80
2022/02/01 09:27:04;;;;;;;16.85;9.25;;;6.30;96.70;;;;;;4986394;28;20501;-81
2022/02/01 09:29:33;;;;;;;18.88;10.85;;;6.50;96.70;;;;;;4991547;28;20423;-81
2022/02/01 09:32:03;;;;;;;19.80;10.65;;;6.70;96.70;;;;;;4999834;28;20046;-82
2022/02/01 09:34:31;;;;;;;18.63;10.25;;;6.90;96.70;;;;;;4988121;28;20049;-82
2022/02/01 09:37:01;;;;;;;14.48;9.20;;;7.00;96.70;;;;;;4984362;28;20078;-81
2022/02/01 09:39:29;;;;;;;16.95;9.20;;;7.20;96.70;;;;;;4998825;28;20049;-80
2022/02/01 09:42:00;;;;;;;16.95;9.45;;;7.30;96.70;;;;;;4985717;28;20443;-81
2022/02/01 09:44:30;;;;;;;16.27;11.25;;;7.20;96.70;;;;;;4989963;28;20054;-79
2022/02/01 09:46:58;;;;;;;16.65;9.93;;;7.40;96.70;;;;;;4982456;28;20053;-80
2022/02/01 09:49:27;;;;;;;15.35;10.10;;;7.50;96.70;;;;;;4984703;28;20688;-80
2022/02/01 09:51:57;;;;;;;16.27;9.77;;;7.70;96.70;;;;;;4984711;28;20049;-81
2022/02/01 09:54:27;;;;;;;20.17;10.65;;;7.70;96.70;;;;;;4983992;28;20046;-79
2022/02/01 09:56:58;;;;;;;21.92;9.77;;;7.80;96.70;;;;;;4973521;28;20046;-80
2022/02/01 09:59:31;;;;;;;32.35;17.08;;;8.00;96.70;;;;;;4988474;28;20481;-79
2022/02/01 10:02:09;;;;;;;22.80;11.68;;;8.20;96.70;;;;;;5000070;28;20046;-79
2022/02/01 10:04:38;;;;;;;34.13;18.23;;;8.30;96.70;;;;;;5002545;28;20148;-80
2022/02/01 10:07:09;;;;;;;33.25;16.75;;;8.50;96.70;;;;;;4987589;28;20044;-80
2022/02/01 10:09:51;;;;;;;34.88;18.55;;;8.70;96.70;;;;;;4998135;28;20066;-79
2022/02/01 10:12:20;;;;;;;24.05;13.50;;;8.90;96.70;;;;;;5004531;28;20510;-79
2022/02/01 10:14:55;;;;;;;31.15;14.57;;;9.20;96.70;;;;;;4990298;28;20052;-79
2022/02/01 10:17:38;;;;;;;28.70;14.90;;;9.40;96.70;;;;;;5001262;28;20103;-79
2022/02/01 10:20:07;;;;;;;27.25;15.02;;;9.60;96.70;;;;;;4992121;28;20488;-79
2022/02/01 10:22:37;;;;;;;29.33;14.52;;;9.70;96.70;;;;;;4989785;28;20868;-79
2022/02/01 10:25:19;;;;;;;28.38;14.23;;;9.90;96.70;;;;;;4998117;28;20046;-78
2022/02/01 10:27:53;;;;;;;23.13;13.77;;;10.00;96.70;;;;;;5002164;28;20078;-77
2022/02/01 10:30:45;;;;;;;20.58;10.98;;;10.10;96.70;;;;;;4987373;28;20038;-78
2022/02/01 10:34:02;;;;;;;24.17;13.15;;;10.40;96.70;;;;;;5001946;28;20050;-79
2022/02/01 10:36:20;;;;;;;26.48;12.85;;;10.60;96.70;;;;;;4982437;28;20065;-79
2022/02/01 10:38:49;;;;;;;19.40;10.85;;;10.70;96.70;;;;;;4999661;28;20435;-79
2022/02/01 10:41:18;;;;;;;19.10;10.20;;;10.70;96.70;;;;;;4987474;28;20695;-79
2022/02/01 10:43:51;;;;;;;18.98;10.30;;;10.80;96.70;;;;;;4995092;28;20042;-79
2022/02/01 10:46:21;;;;;;;17.77;9.50;;;11.00;96.70;;;;;;5000024;28;20476;-80
2022/02/01 10:48:55;;;;;;;18.20;8.60;;;11.10;96.70;;;;;;4987077;28;20050;-80
2022/02/01 10:51:24;;;;;;;14.55;7.72;;;11.30;96.70;;;;;;4991229;28;20121;-79
2022/02/01 10:53:54;;;;;;;18.65;9.10;;;11.40;96.70;;;;;;5001707;28;20177;-79
2022/02/01 10:56:24;;;;;;;13.75;7.05;;;11.50;96.70;;;;;;4988866;28;20074;-81
2022/02/01 10:58:54;;;;;;;16.08;8.60;;;11.60;96.70;;;;;;4993605;28;20045;-79
2022/02/01 11:01:25;;;;;;;13.32;7.07;;;11.70;96.70;;;;;;4983408;28;20061;-81
2022/02/01 11:03:59;;;;;;;12.43;6.60;;;11.80;96.70;;;;;;4986993;28;20563;-79
2022/02/01 11:06:27;;;;;;;12.60;7.07;;;12.00;96.70;;;;;;4988282;28;20050;-81
2022/02/01 11:08:55;;;;;;;13.77;7.32;;;12.20;96.70;;;;;;4985750;28;20054;-80
2022/02/01 11:11:24;;;;;;;12.98;5.68;;;12.20;96.70;;;;;;4989840;28;20052;-80
2022/02/01 11:13:52;;;;;;;10.20;4.75;;;12.30;96.70;;;;;;4981929;28;20647;-80
2022/02/01 11:16:22;;;;;;;9.23;4.90;;;12.40;96.70;;;;;;4988415;28;20046;-80
2022/02/01 11:18:56;;;;;;;6.75;4.22;;;12.50;96.70;;;;;;4989781;28;20053;-81
2022/02/01 11:21:26;;;;;;;6.90;3.92;;;12.60;96.70;;;;;;4990469;28;20563;-81
2022/02/01 11:24:04;;;;;;;11.70;4.90;;;12.70;96.70;;;;;;4984667;28;20038;-79
2022/02/01 11:26:39;;;;;;;9.23;4.22;;;12.80;96.70;;;;;;4987650;28;20144;-79
2022/02/01 11:29:28;;;;;;;10.85;5.13;;;13.00;96.70;;;;;;4998263;28;20046;-80
2022/02/01 11:32:00;;;;;;;9.25;5.43;;;13.10;96.70;;;;;;4992321;28;20054;-80
2022/02/01 11:34:39;;;;;;;11.63;7.20;;;13.20;95.10;;;;;;5001721;28;20050;-79
2022/02/01 11:37:10;;;;;;;18.20;11.35;;;13.30;95.20;;;;;;4990591;28;20428;-79
2022/02/01 11:39:47;;;;;;;11.40;6.80;;;13.50;94.60;;;;;;4986175;28;20096;-80
2022/02/01 11:42:17;;;;;;;8.75;4.53;;;13.60;92.10;;;;;;4983773;28;20073;-81
2022/02/01 11:44:58;;;;;;;6.80;3.40;;;13.60;91.50;;;;;;4987299;28;20054;-80
2022/02/01 11:47:32;;;;;;;4.50;2.83;;;13.70;90.00;;;;;;4993856;28;20074;-80
2022/02/01 11:50:12;;;;;;;4.50;3.10;;;13.90;89.20;;;;;;4997376;28;20045;-80
2022/02/01 11:52:48;;;;;;;5.35;2.60;;;13.90;89.20;;;;;;4986300;28;20046;-80
2022/02/01 11:55:17;;;;;;;5.32;2.70;;;14.00;88.80;;;;;;4987824;28;20165;-80
2022/02/01 11:57:59;;;;;;;2.88;2.05;;;14.20;87.30;;;;;;5001196;28;20144;-80
2022/02/01 12:00:28;;;;;;;4.82;2.65;;;14.30;86.80;;;;;;5005599;28;20050;-80
2022/02/01 12:02:58;;;;;;;3.63;1.80;;;14.30;86.70;;;;;;4995596;28;20100;-80
2022/02/01 12:05:31;;;;;;;3.63;1.80;;;14.40;84.10;;;;;;4979269;28;20062;-80
2022/02/01 12:08:04;;;;;;;3.00;1.60;;;14.60;81.60;;;;;;4982969;28;20046;-80
2022/02/01 12:10:37;;;;;;;2.13;1.30;;;14.60;80.30;;;;;;4986400;28;20053;-80
2022/02/01 12:13:06;;;;;;;2.83;1.88;;;14.80;80.80;;;;;;4984772;28;20334;-80
2022/02/01 12:15:37;;;;;;;2.30;1.88;;;14.80;79.20;;;;;;4979325;28;20041;-80
2022/02/01 12:18:26;;;;;;;3.15;1.77;;;14.90;79.80;;;;;;4984907;28;20056;-80
2022/02/01 12:21:27;;;;;;;2.05;1.40;;;15.00;80.40;;;;;;4980380;28;20507;-80
2022/02/01 12:23:56;;;;;;;3.08;1.15;;;15.10;80.30;;;;;;5001408;28;20050;-81
2022/02/01 12:26:25;;;;;;;3.38;1.20;;;15.20;79.60;;;;;;4985947;28;20130;-81
2022/02/01 12:28:55;;;;;;;2.05;1.10;;;15.20;78.90;;;;;;4988230;28;20453;-81
2022/02/01 12:31:26;;;;;;;1.90;0.98;;;15.30;78.80;;;;;;4993885;28;20043;-81
2022/02/01 12:33:56;;;;;;;3.78;0.93;;;15.40;77.50;;;;;;4986316;28;20056;-82
2022/02/01 12:36:36;;;;;;;0.98;0.60;;;15.50;73.30;;;;;;4997630;28;20054;-81
2022/02/01 12:39:11;;;;;;;;;;;15.70;72.60;;;;;;4996358;28;20500;-81
2022/02/01 12:41:44;;;;;;;2.30;1.30;;;15.80;71.50;;;;;;4996810;28;19929;-82
2022/02/01 12:46:48;;;;;;;1.40;0.80;;;16.10;72.00;;;;;;4998603;28;20133;-81
2022/02/01 12:49:36;;;;;;;0.60;0.40;;;16.00;73.60;;;;;;4986234;28;20050;-81
2022/02/01 12:52:16;;;;;;;1.60;0.50;;;15.90;70.60;;;;;;4985102;28;20056;-81
2022/02/01 12:54:58;;;;;;;1.90;0.50;;;16.10;71.60;;;;;;4995129;28;20046;-81
2022/02/01 12:57:26;;;;;;;;;;;16.20;70.90;;;;;;4999575;28;20127;-81
2022/02/01 13:00:00;;;;;;;1.25;0.43;;;16.20;70.20;;;;;;4966104;28;19926;-81
2022/02/01 13:02:29;;;;;;;0.70;0.30;;;16.10;71.50;;;;;;4982857;28;20050;-82
2022/02/01 13:05:00;;;;;;;0.65;0.20;;;16.10;70.90;;;;;;4983435;28;20044;-81
2022/02/01 13:21:00;;;;;;;1.58;0.20;;;16.00;69.00;;;;;;4980940;28;20366;-80
2022/02/01 13:23:38;;;;;;;0.95;0.38;;;15.90;69.70;;;;;;4999570;28;20039;-80
2022/02/01 13:26:08;;;;;;;0.50;0.20;;;15.90;69.60;;;;;;4984024;28;20129;-81
2022/02/01 13:28:58;;;;;;;0.70;0.22;;;15.90;70.10;;;;;;4993138;28;20096;-81
2022/02/01 13:31:29;;;;;;;0.52;0.20;;;15.70;68.00;;;;;;4986612;28;20097;-80
2022/02/01 13:34:05;;;;;;;0.82;0.25;;;15.80;69.50;;;;;;4990361;28;20072;-81
2022/02/01 13:36:44;;;;;;;1.40;0.60;;;15.80;70.20;;;;;;4986733;28;20058;-81
2022/02/01 13:39:24;;;;;;;0.70;0.20;;;15.70;68.70;;;;;;4967315;28;20042;-81
2022/02/01 13:41:57;;;;;;;1.73;0.80;;;15.80;70.10;;;;;;4986794;28;20137;-80
2022/02/01 13:44:52;;;;;;;1.52;0.90;;;15.80;69.00;;;;;;4989212;28;20041;-80
2022/02/01 13:47:30;;;;;;;1.70;0.28;;;15.80;69.20;;;;;;5000719;28;20390;-80
2022/02/01 13:49:59;;;;;;;0.43;0.20;;;15.80;69.60;;;;;;5001697;28;20050;-80
2022/02/01 13:52:27;;;;;;;1.30;0.20;;;15.90;69.20;;;;;;4984109;28;20046;-80
2022/02/01 13:54:57;;;;;;;0.40;0.20;;;15.90;68.80;;;;;;4981876;28;20050;-80
2022/02/01 13:57:29;;;;;;;0.43;0.10;;;16.00;70.20;;;;;;4986994;28;20049;-80
2022/02/01 14:00:08;;;;;;;0.30;0.00;;;16.00;70.10;;;;;;4987932;28;20128;-80
2022/02/01 14:02:44;;;;;;;0.65;0.20;;;16.00;67.80;;;;;;4987157;28;20050;-81
2022/02/01 14:05:22;;;;;;;0.43;0.10;;;15.90;68.30;;;;;;4987173;28;20048;-80
2022/02/01 14:14:02;;;;;;;1.75;0.10;;;15.90;68.70;;;;;;4984633;28;20046;-81
2022/02/01 14:16:25;;;;;;;0.40;0.28;;;15.90;69.80;;;;;;4982710;28;20066;-80
2022/02/01 14:26:55;;;;;;;0.50;0.20;;;15.50;69.60;;;;;;4984419;28;20046;-80
2022/02/01 14:34:42;;;;;;;0.57;0.20;;;15.20;66.80;;;;;;4985081;28;20057;-80
2022/02/01 14:37:26;;;;;;;0.85;0.20;;;15.10;68.10;;;;;;4967035;28;20046;-80
2022/02/01 14:45:14;;;;;;;2.58;0.80;;;14.80;70.00;;;;;;4970214;28;20081;-81
2022/02/01 14:47:43;;;;;;;13.50;5.05;;;14.70;69.20;;;;;;4966487;28;20050;-83
2022/02/01 14:50:11;;;;;;;7.50;3.13;;;14.60;68.40;;;;;;4980926;28;20049;-81
2022/02/01 14:52:40;;;;;;;13.25;4.90;;;14.60;67.90;;;;;;4964868;28;20064;-82
2022/02/01 14:55:11;;;;;;;4.55;1.80;;;14.60;69.30;;;;;;4985210;28;20349;-82
2022/02/01 15:06:42;;;;;;;2.13;0.73;;;14.60;71.90;;;;;;4969866;28;20050;-81
2022/02/01 15:12:01;;;;;;;0.60;0.40;;;14.50;71.40;;;;;;4979509;28;20043;-81
2022/02/01 15:14:31;;;;;;;1.50;0.77;;;14.50;71.10;;;;;;4961763;28;20047;-82
2022/02/01 15:16:59;;;;;;;0.40;0.20;;;14.50;70.50;;;;;;4980579;28;20097;-81